Time;durP1;ratioP1;P1;durP2;ratioP2;P2;SDS_P1;SDS_P2;PMS_P1;PMS_P2;Temp;Humidity;BMP_temperature;BMP_pressure;BME280_temperature;BME280_humidity;BME280_pressure;Samples;Min_cycle;Max_cycle;Signal;HPM_P1;HPM_P2
2022/01/31 00:00:23;;;;;;;11.65;3.47;;;9.70;48.40;;;;;;5058706;28;20021;-87
2022/01/31 00:02:49;;;;;;;13.90;3.50;;;9.70;48.10;;;;;;5058914;28;20025;-86
2022/01/31 00:05:15;;;;;;;16.25;3.15;;;9.40;48.50;;;;;;5058640;28;20060;-92
2022/01/31 00:07:41;;;;;;;18.00;3.72;;;9.60;48.40;;;;;;5058396;28;20090;-84
2022/01/31 00:10:10;;;;;;;13.32;3.28;;;9.80;48.40;;;;;;5059726;28;20017;-90
2022/01/31 00:12:50;;;;;;;12.25;3.03;;;9.60;47.80;;;;;;5059669;28;20033;-94
2022/01/31 00:15:16;;;;;;;17.83;3.38;;;9.90;47.90;;;;;;5059029;28;20024;-92
2022/01/31 00:17:41;;;;;;;14.48;3.22;;;10.20;47.60;;;;;;5059898;28;20033;-89
2022/01/31 00:20:08;;;;;;;18.17;3.65;;;10.00;47.40;;;;;;5060233;28;20520;-92
2022/01/31 00:22:33;;;;;;;13.10;3.05;;;10.30;47.00;;;;;;5077341;28;20025;-83
2022/01/31 00:24:59;;;;;;;13.25;3.17;;;10.30;46.80;;;;;;5058655;28;20078;-91
2022/01/31 00:27:25;;;;;;;14.98;3.28;;;10.10;47.30;;;;;;5058267;28;20475;-83
2022/01/31 00:29:50;;;;;;;11.65;3.08;;;10.00;47.50;;;;;;5058286;28;20028;-87
2022/01/31 00:32:16;;;;;;;15.30;3.22;;;9.50;47.80;;;;;;5058386;28;20025;-83
2022/01/31 00:34:42;;;;;;;12.15;2.88;;;9.40;47.70;;;;;;5075755;28;20063;-87
2022/01/31 00:37:07;;;;;;;14.05;3.17;;;9.50;48.40;;;;;;5057841;28;20035;-88
2022/01/31 00:39:35;;;;;;;17.15;3.55;;;9.90;47.70;;;;;;5057820;28;20111;-86
2022/01/31 00:42:04;;;;;;;16.63;3.40;;;9.60;47.90;;;;;;5057969;28;20099;-84
2022/01/31 00:44:40;;;;;;;16.75;3.33;;;9.60;47.60;;;;;;5057402;28;20450;-84
2022/01/31 00:47:17;;;;;;;13.07;3.28;;;9.90;47.00;;;;;;5075362;28;20020;-86
2022/01/31 00:49:49;;;;;;;14.65;3.17;;;9.70;47.40;;;;;;5058519;28;20090;-82
2022/01/31 00:52:15;;;;;;;15.60;3.60;;;9.70;47.90;;;;;;5057620;28;20028;-83
2022/01/31 00:54:41;;;;;;;14.23;3.80;;;9.40;48.00;;;;;;5057288;28;20031;-85
2022/01/31 00:57:06;;;;;;;19.23;3.22;;;9.30;48.30;;;;;;5075240;28;20024;-85
2022/01/31 00:59:32;;;;;;;13.18;3.03;;;9.50;48.10;;;;;;5057642;28;20040;-82
2022/01/31 01:01:58;;;;;;;13.13;3.50;;;9.00;48.40;;;;;;5056943;28;20031;-83
2022/01/31 01:04:24;;;;;;;13.30;3.40;;;9.40;48.20;;;;;;5056916;28;20039;-83
2022/01/31 01:06:49;;;;;;;16.08;3.00;;;9.20;47.90;;;;;;5057304;28;20025;-83
2022/01/31 01:09:15;;;;;;;15.65;3.28;;;9.20;48.10;;;;;;5056604;28;20039;-82
2022/01/31 01:11:41;;;;;;;15.07;3.42;;;9.20;48.00;;;;;;5056909;28;20403;-84
2022/01/31 01:14:07;;;;;;;14.43;3.42;;;8.60;48.80;;;;;;5074584;28;20020;-82
2022/01/31 01:16:33;;;;;;;15.45;3.38;;;8.50;49.50;;;;;;5075250;28;20017;-88
2022/01/31 01:18:59;;;;;;;11.23;2.92;;;8.50;49.50;;;;;;5076013;28;20024;-87
2022/01/31 01:21:24;;;;;;;11.93;3.17;;;8.30;49.50;;;;;;5057627;28;20021;-91
2022/01/31 01:23:50;;;;;;;12.85;3.78;;;7.90;50.60;;;;;;5057762;28;20039;-82
2022/01/31 01:26:16;;;;;;;15.27;3.30;;;8.00;50.40;;;;;;5057106;28;20032;-83
2022/01/31 01:28:45;;;;;;;16.20;3.53;;;7.80;50.00;;;;;;5056854;28;20147;-84
2022/01/31 01:31:11;;;;;;;11.10;3.00;;;7.60;50.50;;;;;;5057310;28;20082;-92
2022/01/31 01:33:40;;;;;;;14.75;2.97;;;7.70;50.50;;;;;;5075768;28;20025;-93
2022/01/31 01:36:07;;;;;;;10.02;2.58;;;7.80;50.50;;;;;;5075728;28;20055;-89
2022/01/31 01:38:34;;;;;;;11.93;3.35;;;7.60;50.80;;;;;;5058684;28;20028;-82
2022/01/31 01:41:00;;;;;;;13.75;3.20;;;7.70;50.80;;;;;;5058265;28;20020;-90
2022/01/31 01:43:29;;;;;;;17.00;3.53;;;7.80;50.20;;;;;;5076470;28;20087;-87
2022/01/31 01:45:56;;;;;;;16.65;3.63;;;7.70;50.80;;;;;;5059962;28;20044;-83
2022/01/31 01:48:23;;;;;;;18.13;3.78;;;8.20;50.10;;;;;;5057809;28;20063;-84
2022/01/31 01:50:50;;;;;;;13.88;3.35;;;8.00;49.50;;;;;;5057275;28;20467;-81
2022/01/31 01:53:16;;;;;;;17.33;3.17;;;7.70;50.20;;;;;;5056650;28;20028;-90
2022/01/31 01:55:45;;;;;;;11.85;3.40;;;7.90;50.10;;;;;;5056999;28;20047;-88
2022/01/31 01:58:16;;;;;;;20.00;3.60;;;8.00;49.90;;;;;;5057257;28;20112;-92
2022/01/31 02:00:50;;;;;;;15.70;3.85;;;8.10;49.70;;;;;;5056526;28;20466;-80
2022/01/31 02:03:20;;;;;;;15.82;3.13;;;8.30;49.10;;;;;;5056267;28;20025;-84
2022/01/31 02:05:46;;;;;;;17.48;4.88;;;8.20;49.00;;;;;;5055484;28;20356;-80
2022/01/31 02:08:13;;;;;;;20.20;3.67;;;8.10;49.20;;;;;;5055478;28;20044;-82
2022/01/31 02:10:40;;;;;;;14.15;3.88;;;8.00;49.20;;;;;;5056870;28;20031;-82
2022/01/31 02:13:08;;;;;;;20.15;3.40;;;7.80;49.50;;;;;;5057342;28;20028;-84
2022/01/31 02:15:34;;;;;;;18.08;4.13;;;7.50;50.00;;;;;;5057177;28;20025;-84
2022/01/31 02:18:01;;;;;;;15.55;3.25;;;7.50;50.20;;;;;;5059348;28;20020;-90
2022/01/31 02:20:26;;;;;;;20.63;4.00;;;7.70;50.10;;;;;;5075863;28;20097;-84
2022/01/31 02:22:53;;;;;;;17.67;4.60;;;7.80;49.60;;;;;;5057569;28;20587;-83
2022/01/31 02:25:19;;;;;;;15.48;3.63;;;7.70;50.00;;;;;;5075000;28;20024;-83
2022/01/31 02:27:45;;;;;;;16.83;4.18;;;7.90;49.60;;;;;;5056121;28;20094;-83
2022/01/31 02:30:13;;;;;;;13.63;3.25;;;8.00;49.40;;;;;;5074345;28;20040;-92
2022/01/31 02:32:39;;;;;;;16.45;3.53;;;8.30;49.30;;;;;;5056629;28;20056;-82
2022/01/31 02:35:06;;;;;;;15.55;4.00;;;8.30;48.90;;;;;;5056194;28;20120;-94
2022/01/31 02:37:32;;;;;;;16.30;3.50;;;8.40;48.60;;;;;;5073795;28;20024;-86
2022/01/31 02:39:58;;;;;;;13.95;3.35;;;7.90;49.70;;;;;;5074032;28;20100;-83
2022/01/31 02:42:24;;;;;;;13.52;3.00;;;7.80;50.00;;;;;;5055858;28;20029;-93
2022/01/31 02:44:50;;;;;;;13.18;2.80;;;7.90;50.20;;;;;;5056187;28;20029;-82
2022/01/31 02:47:23;;;;;;;21.42;3.85;;;8.10;50.00;;;;;;5056149;28;20041;-82
2022/01/31 02:50:02;;;;;;;15.00;3.42;;;8.20;49.60;;;;;;5074317;28;20059;-83
2022/01/31 02:52:32;;;;;;;15.75;3.08;;;8.00;50.00;;;;;;5055851;28;20110;-88
2022/01/31 02:54:57;;;;;;;17.38;3.10;;;8.00;50.00;;;;;;5073940;28;20023;-83
2022/01/31 02:57:23;;;;;;;17.15;3.20;;;7.80;50.60;;;;;;5056448;28;20025;-92
2022/01/31 02:59:50;;;;;;;20.85;4.13;;;7.60;50.60;;;;;;5056526;28;20039;-82
2022/01/31 03:02:16;;;;;;;16.13;3.10;;;7.50;51.20;;;;;;5056139;28;20028;-83
2022/01/31 03:04:42;;;;;;;14.20;3.17;;;7.80;50.70;;;;;;5073754;28;20032;-91
2022/01/31 03:07:08;;;;;;;15.82;3.50;;;7.80;50.20;;;;;;5055368;28;20082;-91
2022/01/31 03:09:33;;;;;;;18.17;3.60;;;7.50;50.90;;;;;;5056628;28;20029;-84
2022/01/31 03:12:00;;;;;;;14.95;3.22;;;7.50;51.10;;;;;;5056666;28;20029;-92
2022/01/31 03:14:26;;;;;;;18.08;3.55;;;7.40;51.00;;;;;;5056102;28;20055;-82
2022/01/31 03:16:52;;;;;;;16.05;4.18;;;7.80;50.60;;;;;;5073720;28;20073;-81
2022/01/31 03:19:19;;;;;;;13.40;3.13;;;7.70;50.30;;;;;;5073629;28;20506;-82
2022/01/31 03:21:45;;;;;;;17.00;3.25;;;7.60;50.70;;;;;;5073507;28;20036;-93
2022/01/31 03:24:12;;;;;;;15.13;3.28;;;7.50;50.60;;;;;;5074468;28;20032;-82
2022/01/31 03:26:39;;;;;;;15.32;3.75;;;7.30;51.40;;;;;;5073749;28;20024;-92
2022/01/31 03:29:08;;;;;;;13.02;3.30;;;7.80;51.10;;;;;;5073794;28;20068;-86
2022/01/31 03:31:33;;;;;;;16.83;3.20;;;7.90;50.40;;;;;;5056331;28;20025;-81
2022/01/31 03:33:59;;;;;;;12.68;3.25;;;8.00;50.10;;;;;;5074920;28;20428;-91
2022/01/31 03:36:25;;;;;;;13.75;3.30;;;7.90;50.10;;;;;;5056086;28;20029;-91
2022/01/31 03:38:51;;;;;;;15.23;2.90;;;7.60;50.60;;;;;;5074148;28;20082;-92
2022/01/31 03:41:20;;;;;;;17.23;3.72;;;7.70;50.50;;;;;;5073746;28;20039;-89
2022/01/31 03:43:46;;;;;;;15.70;3.53;;;7.70;50.60;;;;;;5074095;28;20024;-83
2022/01/31 03:46:11;;;;;;;19.40;3.53;;;8.10;50.10;;;;;;5056370;28;20532;-81
2022/01/31 03:48:38;;;;;;;21.73;3.78;;;8.00;50.30;;;;;;5051213;28;20044;-81
2022/01/31 03:51:05;;;;;;;15.50;3.20;;;7.80;50.10;;;;;;5054044;28;20376;-84
2022/01/31 03:53:31;;;;;;;20.70;5.10;;;7.80;50.40;;;;;;5056370;28;20056;-81
2022/01/31 03:55:58;;;;;;;14.77;3.47;;;7.80;50.40;;;;;;5054779;28;20056;-81
2022/01/31 03:58:24;;;;;;;18.35;3.95;;;7.90;50.20;;;;;;5054864;28;20048;-81
2022/01/31 04:00:50;;;;;;;15.07;3.50;;;7.60;49.90;;;;;;5055143;28;20017;-80
2022/01/31 04:03:17;;;;;;;15.50;2.95;;;7.90;50.00;;;;;;5055886;28;20028;-80
2022/01/31 04:05:42;;;;;;;21.13;3.85;;;8.10;49.70;;;;;;5057498;28;20029;-84
2022/01/31 04:08:09;;;;;;;14.15;3.60;;;8.10;49.30;;;;;;5055805;28;20043;-80
2022/01/31 04:10:36;;;;;;;16.95;4.18;;;8.00;49.80;;;;;;5057608;28;20021;-82
2022/01/31 04:13:02;;;;;;;17.67;3.40;;;7.90;49.90;;;;;;5056619;28;20478;-87
2022/01/31 04:15:28;;;;;;;14.07;3.67;;;7.80;49.30;;;;;;5056812;28;20027;-87
2022/01/31 04:17:54;;;;;;;17.23;4.78;;;7.60;50.20;;;;;;5056897;28;20387;-93
2022/01/31 04:20:20;;;;;;;19.65;4.70;;;7.60;50.10;;;;;;5055663;28;20108;-82
2022/01/31 04:22:55;;;;;;;16.00;3.58;;;7.70;50.20;;;;;;5056545;28;20036;-90
2022/01/31 04:28:15;;;;;;;15.70;3.97;;;7.80;49.60;;;;;;5058227;28;20048;-90
2022/01/31 04:30:46;;;;;;;14.60;3.75;;;8.10;49.40;;;;;;5056607;28;20021;-92
2022/01/31 04:33:11;;;;;;;12.30;3.20;;;8.40;48.70;;;;;;5055075;28;20476;-82
2022/01/31 04:35:37;;;;;;;12.32;2.88;;;8.10;48.90;;;;;;5056522;28;20082;-91
2022/01/31 04:38:03;;;;;;;14.52;3.58;;;8.10;49.60;;;;;;5055782;28;20029;-83
2022/01/31 04:40:28;;;;;;;14.75;3.40;;;8.10;49.20;;;;;;5056304;28;20029;-81
2022/01/31 04:42:54;;;;;;;14.82;3.17;;;8.20;49.30;;;;;;5057394;28;20094;-82
2022/01/31 04:45:20;;;;;;;13.45;3.30;;;8.30;48.50;;;;;;5056879;28;20070;-86
2022/01/31 04:47:45;;;;;;;13.70;3.08;;;8.10;48.70;;;;;;5062339;28;20056;-92
2022/01/31 04:50:11;;;;;;;14.57;3.70;;;8.00;48.60;;;;;;5076299;28;20052;-81
2022/01/31 04:52:41;;;;;;;12.07;3.15;;;8.40;48.20;;;;;;5058753;28;20024;-93
2022/01/31 04:55:07;;;;;;;10.90;3.17;;;8.10;48.30;;;;;;5058594;28;20021;-82
2022/01/31 04:57:33;;;;;;;14.00;2.63;;;8.40;48.00;;;;;;5077771;28;20025;-81
2022/01/31 04:59:59;;;;;;;15.38;3.13;;;8.40;47.70;;;;;;5056045;28;20035;-81
2022/01/31 05:02:27;;;;;;;18.70;3.35;;;8.50;47.10;;;;;;5057109;28;20059;-91
2022/01/31 05:04:52;;;;;;;16.52;3.28;;;8.30;47.60;;;;;;5043694;28;20040;-83
2022/01/31 05:07:18;;;;;;;12.65;2.90;;;8.30;47.40;;;;;;5058813;28;20075;-85
2022/01/31 05:09:45;;;;;;;15.55;3.30;;;8.70;47.30;;;;;;5059335;28;20063;-91
2022/01/31 05:12:10;;;;;;;10.63;2.70;;;8.90;46.90;;;;;;5075949;28;20016;-82
2022/01/31 05:14:36;;;;;;;12.93;4.05;;;9.10;46.50;;;;;;5076473;28;20078;-93
2022/01/31 05:17:02;;;;;;;18.00;4.35;;;9.30;46.10;;;;;;5058937;28;20035;-82
2022/01/31 05:19:28;;;;;;;16.90;4.18;;;9.40;45.60;;;;;;5057853;28;20024;-92
2022/01/31 05:21:54;;;;;;;14.60;4.07;;;9.10;45.50;;;;;;5054247;28;20036;-80
2022/01/31 05:24:19;;;;;;;12.18;3.60;;;8.60;46.60;;;;;;5037685;28;20518;-90
2022/01/31 05:26:50;;;;;;;16.85;3.58;;;8.80;46.90;;;;;;5047129;28;20025;-92
2022/01/31 05:29:20;;;;;;;17.77;4.13;;;8.30;46.80;;;;;;5075924;28;20124;-91
2022/01/31 05:31:46;;;;;;;14.70;3.43;;;8.30;47.10;;;;;;5047590;28;20027;-86
2022/01/31 05:34:12;;;;;;;14.60;3.22;;;8.60;47.00;;;;;;5041074;28;20297;-79
2022/01/31 05:36:42;;;;;;;21.60;4.32;;;8.80;46.70;;;;;;5059866;28;20099;-94
2022/01/31 05:39:08;;;;;;;11.32;3.22;;;9.10;46.10;;;;;;5054684;28;20013;-92
2022/01/31 05:41:34;;;;;;;19.25;3.50;;;9.30;46.10;;;;;;5066177;28;20104;-94
2022/01/31 05:44:00;;;;;;;12.32;2.90;;;9.30;45.20;;;;;;5067927;28;20043;-95
2022/01/31 05:46:26;;;;;;;11.82;3.08;;;9.10;45.60;;;;;;5065154;28;20029;-80
2022/01/31 05:48:52;;;;;;;14.43;3.30;;;8.90;46.20;;;;;;5054644;28;20094;-87
2022/01/31 05:51:23;;;;;;;14.20;3.35;;;9.00;46.00;;;;;;5077387;28;20021;-89
2022/01/31 05:53:50;;;;;;;14.23;3.83;;;8.90;46.60;;;;;;5057428;28;20024;-94
2022/01/31 05:56:17;;;;;;;18.08;3.97;;;8.90;46.10;;;;;;5054300;28;20028;-92
2022/01/31 05:58:44;;;;;;;20.35;6.15;;;9.10;46.10;;;;;;5037225;28;20076;-81
2022/01/31 06:01:10;;;;;;;23.98;6.18;;;9.10;45.90;;;;;;5049262;28;20064;-80
2022/01/31 06:03:37;;;;;;;30.13;7.95;;;9.10;45.70;;;;;;5055656;28;20067;-89
2022/01/31 06:06:03;;;;;;;31.50;7.63;;;9.20;45.40;;;;;;5042608;28;20029;-94
2022/01/31 06:08:29;;;;;;;26.58;7.30;;;9.30;45.30;;;;;;5039446;28;20119;-82
2022/01/31 06:10:55;;;;;;;18.35;5.60;;;9.10;45.10;;;;;;5053663;28;20036;-89
2022/01/31 06:13:32;;;;;;;23.13;6.60;;;9.00;45.60;;;;;;5035244;28;20113;-82
2022/01/31 06:15:57;;;;;;;20.05;5.55;;;9.10;46.00;;;;;;5035693;28;20028;-82
2022/01/31 06:18:23;;;;;;;17.65;6.20;;;9.20;45.60;;;;;;5053149;28;20025;-82
2022/01/31 06:20:49;;;;;;;22.42;5.10;;;9.40;45.40;;;;;;5035747;28;20025;-81
2022/01/31 06:23:14;;;;;;;17.98;4.13;;;9.50;46.40;;;;;;5035268;28;20104;-83
2022/01/31 06:25:44;;;;;;;14.88;3.95;;;9.10;46.20;;;;;;5053624;28;20033;-84
2022/01/31 06:28:09;;;;;;;13.98;3.50;;;8.90;46.80;;;;;;5038311;28;20501;-80
2022/01/31 06:30:36;;;;;;;12.55;3.08;;;9.00;46.70;;;;;;5056246;28;20025;-91
2022/01/31 06:33:02;;;;;;;12.10;3.13;;;9.00;46.30;;;;;;5054656;28;20037;-83
2022/01/31 06:35:28;;;;;;;15.43;3.70;;;9.10;46.10;;;;;;5056965;28;20031;-93
2022/01/31 06:37:55;;;;;;;15.60;3.60;;;9.10;46.70;;;;;;5075063;28;20410;-79
2022/01/31 06:40:21;;;;;;;11.77;2.97;;;9.80;46.00;;;;;;5074761;28;20028;-86
2022/01/31 06:42:46;;;;;;;10.38;2.80;;;9.80;45.50;;;;;;5055096;28;20210;-80
2022/01/31 06:45:14;;;;;;;15.43;4.13;;;9.80;45.30;;;;;;5054637;28;20020;-81
2022/01/31 06:47:40;;;;;;;21.10;7.53;;;9.70;45.60;;;;;;5054230;28;20127;-83
2022/01/31 06:50:07;;;;;;;14.50;3.85;;;9.20;46.20;;;;;;5053380;28;20104;-85
2022/01/31 06:52:35;;;;;;;17.92;4.22;;;9.30;46.50;;;;;;5035424;28;20025;-81
2022/01/31 06:55:05;;;;;;;18.95;3.60;;;9.40;46.20;;;;;;5053620;28;20049;-88
2022/01/31 06:57:35;;;;;;;18.83;5.30;;;9.60;46.00;;;;;;5035522;28;20147;-81
2022/01/31 07:00:07;;;;;;;19.35;4.95;;;10.00;45.50;;;;;;5035779;28;20483;-86
2022/01/31 07:02:33;;;;;;;16.75;4.20;;;9.90;45.60;;;;;;5034845;28;20025;-80
2022/01/31 07:05:00;;;;;;;34.95;9.98;;;10.00;46.30;;;;;;5035253;28;20135;-91
2022/01/31 07:07:35;;;;;;;19.70;5.32;;;10.00;45.60;;;;;;5035654;28;20029;-81
2022/01/31 07:10:01;;;;;;;13.68;4.55;;;9.60;46.40;;;;;;5053382;28;20056;-89
2022/01/31 07:12:33;;;;;;;24.02;6.18;;;9.40;46.10;;;;;;5054464;28;20021;-82
2022/01/31 07:15:00;;;;;;;19.42;4.35;;;9.40;46.40;;;;;;5037056;28;20064;-79
2022/01/31 07:17:25;;;;;;;19.05;5.68;;;9.60;46.40;;;;;;5037133;28;20052;-95
2022/01/31 07:19:52;;;;;;;17.15;3.30;;;9.40;46.50;;;;;;5036841;28;20052;-85
2022/01/31 07:22:19;;;;;;;20.52;4.82;;;9.10;46.80;;;;;;5036615;28;20029;-84
2022/01/31 07:25:00;;;;;;;13.63;3.47;;;9.20;47.10;;;;;;5056146;28;20108;-82
2022/01/31 07:27:26;;;;;;;19.52;5.20;;;9.80;46.40;;;;;;5057918;28;20103;-80
2022/01/31 07:29:52;;;;;;;21.75;5.18;;;10.30;45.70;;;;;;5057461;28;20033;-84
2022/01/31 07:32:19;;;;;;;19.88;5.97;;;10.40;45.70;;;;;;5057066;28;20036;-81
2022/01/31 07:34:55;;;;;;;17.52;3.90;;;10.20;45.90;;;;;;5057283;28;20067;-82
2022/01/31 07:37:24;;;;;;;16.52;3.78;;;9.90;46.40;;;;;;5039279;28;20025;-81
2022/01/31 07:39:50;;;;;;;17.27;4.35;;;9.90;46.70;;;;;;5057008;28;20048;-82
2022/01/31 07:42:17;;;;;;;14.27;4.13;;;10.00;46.70;;;;;;5057410;28;20079;-93
2022/01/31 07:44:46;;;;;;;39.90;16.52;;;9.90;46.70;;;;;;5038952;28;20033;-80
2022/01/31 07:47:12;;;;;;;20.05;6.60;;;9.90;47.00;;;;;;5038835;28;20025;-80
2022/01/31 07:49:37;;;;;;;33.97;13.30;;;10.30;46.40;;;;;;5038860;28;20037;-91
2022/01/31 07:52:04;;;;;;;33.53;8.77;;;10.40;46.20;;;;;;5038979;28;20025;-93
2022/01/31 07:54:30;;;;;;;13.60;3.50;;;10.10;47.00;;;;;;5056287;28;20394;-92
2022/01/31 07:56:57;;;;;;;22.35;7.88;;;10.00;46.70;;;;;;5039243;28;20467;-94
2022/01/31 07:59:23;;;;;;;28.08;9.70;;;9.60;47.50;;;;;;5038845;28;20099;-82
2022/01/31 08:01:54;;;;;;;12.05;3.95;;;9.50;48.20;;;;;;5038581;28;20021;-84
2022/01/31 08:04:20;;;;;;;19.45;5.10;;;9.50;47.90;;;;;;5038277;28;20071;-93
2022/01/31 08:06:46;;;;;;;18.17;4.53;;;9.80;47.50;;;;;;5038245;28;20025;-81
2022/01/31 08:09:11;;;;;;;21.48;6.63;;;10.00;47.60;;;;;;5038045;28;20043;-93
2022/01/31 08:11:37;;;;;;;30.42;10.57;;;9.90;47.40;;;;;;5038307;28;20430;-84
2022/01/31 08:14:08;;;;;;;28.05;9.32;;;9.70;47.00;;;;;;5038804;28;20029;-91
2022/01/31 08:16:35;;;;;;;23.95;6.75;;;9.70;48.00;;;;;;5056834;28;20463;-87
2022/01/31 08:19:01;;;;;;;16.58;5.30;;;10.00;47.70;;;;;;5056125;28;20028;-81
2022/01/31 08:21:26;;;;;;;15.65;4.88;;;10.40;47.00;;;;;;5038613;28;20044;-81
2022/01/31 08:23:53;;;;;;;22.92;6.88;;;10.60;46.60;;;;;;5056240;28;20486;-79
2022/01/31 08:26:20;;;;;;;17.73;4.07;;;11.00;46.30;;;;;;5038263;28;20021;-80
2022/01/31 08:29:03;;;;;;;18.15;3.92;;;11.30;45.80;;;;;;5038208;28;20090;-92
2022/01/31 08:31:34;;;;;;;14.77;4.22;;;11.60;45.00;;;;;;5038031;28;20025;-90
2022/01/31 08:34:06;;;;;;;20.73;6.03;;;11.50;44.80;;;;;;5037751;28;20025;-80
2022/01/31 08:36:36;;;;;;;16.35;3.95;;;11.50;45.30;;;;;;5037665;28;20435;-79
2022/01/31 08:39:08;;;;;;;23.73;7.45;;;11.60;44.90;;;;;;5056102;28;20028;-79
2022/01/31 08:41:41;;;;;;;25.00;6.75;;;11.30;45.40;;;;;;5038107;28;20051;-79
2022/01/31 08:44:08;;;;;;;17.42;4.78;;;11.20;45.80;;;;;;5038328;28;20111;-80
2022/01/31 08:46:40;;;;;;;19.75;7.07;;;11.30;44.70;;;;;;5055400;28;20023;-79
2022/01/31 08:49:10;;;;;;;18.17;6.68;;;11.00;45.60;;;;;;5037324;28;20167;-80
2022/01/31 08:51:37;;;;;;;23.63;6.20;;;11.50;45.20;;;;;;5055476;28;20068;-80
2022/01/31 08:54:05;;;;;;;18.13;5.07;;;11.80;45.00;;;;;;5037810;28;20029;-90
2022/01/31 08:56:35;;;;;;;15.13;4.60;;;12.30;44.20;;;;;;5037507;28;20025;-89
2022/01/31 08:59:02;;;;;;;11.05;3.53;;;12.50;43.70;;;;;;5037478;28;20028;-79
2022/01/31 09:01:28;;;;;;;21.30;4.60;;;13.00;43.30;;;;;;5055861;28;20021;-95
2022/01/31 09:06:23;;;;;;;14.13;5.07;;;13.50;42.80;;;;;;5055408;28;20108;-80
2022/01/31 09:08:49;;;;;;;22.30;9.80;;;13.60;42.60;;;;;;5037777;28;20029;-79
2022/01/31 09:11:15;;;;;;;17.70;4.82;;;13.10;43.10;;;;;;5055093;28;20029;-90
2022/01/31 09:13:41;;;;;;;11.32;3.67;;;13.30;43.30;;;;;;5037081;28;20214;-90
2022/01/31 09:16:07;;;;;;;19.08;4.85;;;12.90;42.80;;;;;;5037248;28;20029;-80
2022/01/31 09:18:33;;;;;;;16.63;4.07;;;12.20;43.20;;;;;;5036895;28;20033;-79
2022/01/31 09:20:59;;;;;;;14.43;5.03;;;11.80;44.60;;;;;;5055021;28;20024;-93
2022/01/31 09:23:27;;;;;;;14.02;4.90;;;11.90;44.70;;;;;;5036853;28;20032;-91
2022/01/31 09:25:57;;;;;;;17.73;4.57;;;12.20;43.90;;;;;;5036971;28;20024;-79
2022/01/31 09:28:24;;;;;;;16.15;5.20;;;12.10;43.90;;;;;;5037131;28;20507;-79
2022/01/31 09:30:52;;;;;;;16.27;4.15;;;11.50;44.30;;;;;;5037293;28;20500;-93
2022/01/31 09:33:18;;;;;;;13.43;4.05;;;11.30;44.70;;;;;;5036932;28;20033;-90
2022/01/31 09:35:48;;;;;;;15.73;4.00;;;10.90;44.80;;;;;;5055029;28;20017;-86
2022/01/31 09:38:17;;;;;;;14.98;5.93;;;10.70;45.40;;;;;;5036253;28;20158;-78
2022/01/31 09:40:43;;;;;;;15.10;4.20;;;10.90;45.70;;;;;;5037026;28;20029;-79
2022/01/31 09:45:57;;;;;;;12.05;3.97;;;11.00;46.20;;;;;;5054568;28;20040;-80
2022/01/31 09:48:38;;;;;;;13.05;4.00;;;11.60;45.30;;;;;;5035585;28;20491;-79
2022/01/31 09:51:09;;;;;;;14.05;4.00;;;11.60;45.50;;;;;;5036535;28;20031;-93
2022/01/31 09:53:41;;;;;;;;;;;11.60;45.70;;;;;;5054597;28;20387;-79
2022/01/31 09:56:09;;;;;;;11.48;4.10;;;11.80;44.70;;;;;;5054376;28;19958;-83
2022/01/31 09:58:39;;;;;;;12.77;3.88;;;11.90;45.00;;;;;;5037495;28;20021;-79
2022/01/31 10:01:11;;;;;;;13.70;4.17;;;12.20;44.60;;;;;;5037979;28;20071;-90
2022/01/31 10:04:09;;;;;;;18.77;4.78;;;12.10;43.90;;;;;;5038040;28;20021;-80
2022/01/31 10:06:39;;;;;;;11.88;3.90;;;11.90;44.80;;;;;;5055306;28;20047;-79
2022/01/31 10:09:18;;;;;;;18.15;4.65;;;11.90;44.40;;;;;;5037677;28;20044;-79
2022/01/31 10:12:04;;;;;;;11.38;3.70;;;12.10;44.60;;;;;;5037204;28;20387;-79
2022/01/31 10:17:37;;;;;;;15.20;4.22;;;11.90;45.10;;;;;;5054060;28;20116;-80
2022/01/31 10:20:10;;;;;;;13.43;3.78;;;12.00;45.10;;;;;;5036176;28;20108;-80
2022/01/31 10:22:38;;;;;;;16.95;5.05;;;12.10;44.70;;;;;;5053847;28;20056;-90
2022/01/31 10:25:08;;;;;;;16.45;5.00;;;12.00;45.20;;;;;;5053894;28;20060;-79
2022/01/31 10:27:36;;;;;;;15.50;5.68;;;12.10;45.30;;;;;;5035346;28;20502;-92
2022/01/31 10:30:11;;;;;;;13.68;4.55;;;12.00;44.90;;;;;;5035834;28;20434;-86
2022/01/31 10:32:40;;;;;;;14.40;3.92;;;12.10;44.20;;;;;;5053756;28;20112;-80
2022/01/31 10:35:09;;;;;;;12.95;5.60;;;11.80;44.80;;;;;;5036017;28;20021;-84
2022/01/31 10:37:38;;;;;;;14.05;4.22;;;11.70;44.90;;;;;;5053622;28;20471;-80
2022/01/31 10:45:53;;;;;;;16.08;5.13;;;11.90;45.00;;;;;;5053677;28;20076;-85
2022/01/31 10:56:53;;;;;;;21.63;7.70;;;12.30;44.70;;;;;;5033668;28;20057;-80
2022/01/31 10:59:22;;;;;;;15.48;5.95;;;12.40;43.40;;;;;;5033070;28;20290;-91
2022/01/31 11:01:50;;;;;;;18.85;6.28;;;12.10;44.10;;;;;;5033588;28;20112;-81
2022/01/31 11:04:16;;;;;;;17.95;5.47;;;11.80;44.00;;;;;;5033802;28;20388;-80
2022/01/31 11:06:47;;;;;;;14.25;4.72;;;11.60;44.80;;;;;;5032045;28;20487;-80
2022/01/31 11:09:15;;;;;;;14.98;4.35;;;11.50;45.10;;;;;;5032072;28;20037;-82
2022/01/31 11:11:44;;;;;;;14.82;5.65;;;11.50;45.30;;;;;;5031899;28;20530;-79
2022/01/31 11:14:10;;;;;;;13.38;4.53;;;11.60;44.90;;;;;;5033321;28;20436;-85
2022/01/31 11:16:39;;;;;;;12.48;4.20;;;11.70;44.70;;;;;;5032406;28;20121;-85
2022/01/31 11:19:07;;;;;;;16.48;4.05;;;11.60;44.40;;;;;;5033109;28;20487;-79
2022/01/31 11:21:35;;;;;;;17.00;5.65;;;11.60;44.60;;;;;;5031852;28;20026;-92
2022/01/31 11:24:04;;;;;;;15.00;3.95;;;11.90;44.70;;;;;;5033156;28;20383;-84
2022/01/31 11:26:40;;;;;;;15.90;4.82;;;11.90;44.00;;;;;;5033649;28;20490;-79
2022/01/31 11:29:07;;;;;;;13.18;3.85;;;12.60;43.70;;;;;;5032250;28;20370;-79
2022/01/31 11:31:38;;;;;;;14.07;4.25;;;12.70;43.30;;;;;;5033099;28;20101;-80
2022/01/31 11:34:05;;;;;;;17.48;5.10;;;12.90;42.90;;;;;;5033011;28;20134;-80
2022/01/31 11:36:36;;;;;;;18.42;6.80;;;13.10;43.20;;;;;;5031717;28;20034;-93
2022/01/31 11:39:06;;;;;;;18.80;5.95;;;13.20;42.50;;;;;;5032976;28;20167;-84
2022/01/31 11:41:34;;;;;;;19.80;6.75;;;13.00;42.00;;;;;;5032866;28;20022;-79
2022/01/31 11:44:22;;;;;;;21.83;6.97;;;12.90;42.50;;;;;;5031662;28;20053;-80
2022/01/31 11:46:49;;;;;;;23.35;10.50;;;12.60;43.70;;;;;;5031968;28;20447;-89
2022/01/31 11:49:15;;;;;;;18.83;6.93;;;12.90;43.00;;;;;;5032124;28;20580;-79
2022/01/31 11:51:50;;;;;;;19.83;7.18;;;13.10;43.20;;;;;;5033484;28;20025;-88
2022/01/31 11:54:23;;;;;;;15.40;6.20;;;13.20;43.00;;;;;;5031738;28;20028;-83
2022/01/31 11:56:52;;;;;;;23.90;11.98;;;12.70;43.20;;;;;;5033249;28;20464;-93
2022/01/31 11:59:21;;;;;;;19.52;7.00;;;13.00;42.80;;;;;;5031329;28;20033;-79
2022/01/31 12:01:52;;;;;;;21.55;5.72;;;13.10;42.20;;;;;;5031711;28;20159;-79
2022/01/31 12:04:31;;;;;;;13.13;4.70;;;12.80;42.70;;;;;;5032637;28;20028;-94
2022/01/31 12:06:57;;;;;;;20.13;5.35;;;12.90;42.80;;;;;;5026893;28;20025;-79
2022/01/31 12:09:26;;;;;;;17.02;5.45;;;12.90;43.30;;;;;;5031477;28;20033;-79
2022/01/31 12:12:02;;;;;;;15.98;4.75;;;12.80;42.60;;;;;;5033446;28;20053;-80
2022/01/31 12:14:45;;;;;;;17.35;4.53;;;12.50;43.00;;;;;;5037424;28;20026;-95
2022/01/31 12:18:19;;;;;;;13.10;4.80;;;12.60;43.20;;;;;;5037761;28;20030;-79
2022/01/31 12:23:40;;;;;;;11.35;3.70;;;12.30;42.80;;;;;;5037547;28;20032;-79
2022/01/31 12:26:37;;;;;;;14.23;4.38;;;12.00;43.20;;;;;;5036269;28;20029;-83
2022/01/31 12:29:08;;;;;;;11.38;4.43;;;12.20;43.70;;;;;;5034907;28;20034;-92
2022/01/31 12:31:34;;;;;;;18.42;4.20;;;12.40;43.10;;;;;;5035871;28;20029;-79
2022/01/31 12:34:00;;;;;;;13.85;3.95;;;12.50;43.30;;;;;;5035618;28;20021;-89
2022/01/31 12:36:35;;;;;;;11.95;4.95;;;12.80;42.80;;;;;;5034777;28;20029;-79
2022/01/31 12:39:41;;;;;;;12.20;4.18;;;12.80;42.80;;;;;;5035643;28;20484;-94
2022/01/31 12:45:20;;;;;;;14.85;4.13;;;12.90;42.80;;;;;;5036285;28;20056;-79
2022/01/31 12:48:12;;;;;;;15.85;4.88;;;12.50;42.70;;;;;;5034089;28;20460;-79
2022/01/31 12:50:43;;;;;;;16.10;5.47;;;12.30;43.50;;;;;;5035488;28;20025;-79
2022/01/31 12:53:44;;;;;;;14.85;4.88;;;12.20;43.90;;;;;;5034570;28;20025;-82
2022/01/31 12:56:29;;;;;;;16.33;4.70;;;12.50;43.70;;;;;;5035441;28;20021;-79
2022/01/31 12:59:04;;;;;;;15.95;4.68;;;12.80;43.40;;;;;;5034330;28;20384;-89
2022/01/31 13:01:36;;;;;;;12.43;5.32;;;13.10;42.90;;;;;;5034041;28;20439;-78
2022/01/31 13:04:06;;;;;;;15.82;4.78;;;12.80;43.30;;;;;;5034909;28;20140;-79
2022/01/31 13:06:34;;;;;;;;;;;12.50;43.60;;;;;;5034234;28;20053;-79
2022/01/31 13:09:25;;;;;;;13.48;4.65;;;12.50;43.60;;;;;;5033989;28;19913;-93
2022/01/31 13:12:04;;;;;;;16.13;5.07;;;12.60;43.10;;;;;;5033767;28;20095;-92
2022/01/31 13:14:51;;;;;;;15.82;4.43;;;12.60;43.60;;;;;;5033844;28;20036;-93
2022/01/31 13:17:25;;;;;;;16.67;5.78;;;12.90;43.60;;;;;;5035063;28;20029;-78
2022/01/31 13:19:59;;;;;;;16.63;3.88;;;12.70;43.40;;;;;;5033709;28;20195;-79
2022/01/31 13:25:13;;;;;;;17.13;4.97;;;13.20;43.50;;;;;;5035580;28;20025;-94